createdAt,value
2019-03-15T00:01:00.835Z,0.67
2019-03-15T00:03:50.714Z,0.53
2019-03-15T00:06:40.608Z,0.60
2019-03-15T00:09:30.433Z,0.70
2019-03-15T00:12:20.300Z,0.70
2019-03-15T00:15:10.314Z,0.80
2019-03-15T00:18:00.187Z,0.80
2019-03-15T00:20:50.019Z,0.60
2019-03-15T00:23:39.875Z,0.77
2019-03-15T00:26:29.715Z,0.60
2019-03-15T00:29:19.634Z,0.63
2019-03-15T00:32:09.484Z,0.70
2019-03-15T00:35:00.317Z,0.80
2019-03-15T00:37:50.110Z,0.87
2019-03-15T00:40:39.951Z,0.80
2019-03-15T00:43:29.761Z,1.07
2019-03-15T00:46:19.691Z,0.97
2019-03-15T00:49:09.541Z,1.20
2019-03-15T00:51:39.989Z,0.93
2019-03-15T00:54:29.985Z,1.40
2019-03-15T00:57:19.844Z,1.17
2019-03-15T01:00:11.443Z,1.53
2019-03-15T01:02:44.394Z,1.30
2019-03-15T01:05:34.437Z,1.20
2019-03-15T01:08:24.277Z,1.40
2019-03-15T01:11:14.078Z,1.50
2019-03-15T01:14:04.074Z,1.47
2019-03-15T01:16:54.028Z,1.43
2019-03-15T01:19:43.866Z,1.40
2019-03-15T01:22:33.797Z,1.47
2019-03-15T01:25:23.602Z,1.50
2019-03-15T01:28:13.442Z,1.33
2019-03-15T01:31:03.278Z,1.93
2019-03-15T01:33:53.099Z,1.70
2019-03-15T01:36:42.967Z,1.40
2019-03-15T01:39:32.839Z,1.33
2019-03-15T01:42:22.694Z,1.30
2019-03-15T01:45:12.635Z,1.17
2019-03-15T01:48:02.497Z,1.20
2019-03-15T01:50:52.358Z,1.30
2019-03-15T01:53:42.223Z,1.13
2019-03-15T01:56:32.068Z,1.50
2019-03-15T01:59:02.505Z,1.20
2019-03-15T02:01:52.388Z,1.67
2019-03-15T02:04:42.314Z,1.07
2019-03-15T02:07:32.190Z,1.43
2019-03-15T02:10:22.602Z,1.63
2019-03-15T02:13:04.963Z,1.20
2019-03-15T02:15:54.866Z,1.20
2019-03-15T02:18:25.406Z,1.50
2019-03-15T02:21:15.253Z,1.30
2019-03-15T02:24:05.189Z,1.23
2019-03-15T02:26:55.032Z,1.30
2019-03-15T02:29:44.882Z,1.37
2019-03-15T02:32:34.755Z,1.50
2019-03-15T02:35:24.606Z,1.53
2019-03-15T02:38:14.466Z,1.73
2019-03-15T02:41:05.123Z,1.53
2019-03-15T02:43:47.372Z,1.77
2019-03-15T02:46:37.249Z,1.47
2019-03-15T02:49:27.102Z,1.63
2019-03-15T02:52:16.944Z,1.63
2019-03-15T02:55:06.906Z,1.60
2019-03-15T02:57:37.482Z,1.23
2019-03-15T03:00:27.327Z,1.40
2019-03-15T03:03:17.166Z,1.23
2019-03-15T03:06:07.029Z,1.30
2019-03-15T03:08:37.762Z,1.30
2019-03-15T03:11:27.596Z,0.93
2019-03-15T03:14:17.457Z,1.60
2019-03-15T03:17:07.314Z,1.33
2019-03-15T03:19:57.232Z,1.10
2019-03-15T03:22:47.056Z,1.20
2019-03-15T03:25:37.234Z,1.70
2019-03-15T03:28:19.913Z,1.30
2019-03-15T03:31:09.774Z,1.40
2019-03-15T03:33:59.657Z,1.57
2019-03-15T03:36:49.451Z,1.53
2019-03-15T03:39:39.289Z,1.60
2019-03-15T03:42:29.135Z,1.43
2019-03-15T03:45:19.021Z,1.60
2019-03-15T03:47:49.491Z,1.77
2019-03-15T03:50:39.352Z,1.50
2019-03-15T03:53:29.229Z,1.77
2019-03-15T03:56:19.128Z,1.60
2019-03-15T03:58:49.576Z,1.70
2019-03-15T04:01:39.461Z,1.70
2019-03-15T04:04:29.338Z,1.80
2019-03-15T04:07:19.321Z,1.90
2019-03-15T04:10:09.356Z,1.70
2019-03-15T04:12:39.944Z,1.90
2019-03-15T04:15:29.845Z,1.93
2019-03-15T04:18:19.815Z,2.47
2019-03-15T04:21:09.745Z,2.30
2019-03-15T04:23:59.603Z,1.80
2019-03-15T04:26:49.565Z,2.23
2019-03-15T04:29:39.457Z,1.87
2019-03-15T04:32:29.370Z,2.20
2019-03-15T04:35:19.205Z,1.40
2019-03-15T04:37:49.809Z,1.60
2019-03-15T04:40:39.605Z,2.20
2019-03-15T04:43:29.441Z,1.60
2019-03-15T04:46:19.280Z,1.50
2019-03-15T04:48:51.366Z,1.43
2019-03-15T04:51:41.182Z,1.50
2019-03-15T04:54:31.036Z,1.57
2019-03-15T04:57:20.888Z,1.47
2019-03-15T05:00:12.363Z,1.40
2019-03-15T05:02:43.065Z,1.83
2019-03-15T05:05:32.919Z,1.10
2019-03-15T05:08:22.742Z,1.30
2019-03-15T05:11:12.593Z,0.87
2019-03-15T05:13:43.039Z,1.20
2019-03-15T05:16:33.031Z,0.80
2019-03-15T05:19:22.825Z,0.93
2019-03-15T05:22:13.606Z,0.70
2019-03-15T05:25:03.611Z,0.77
2019-03-15T05:27:53.435Z,0.77
2019-03-15T05:30:43.277Z,0.90
2019-03-15T05:33:33.141Z,1.00
2019-03-15T05:36:23.010Z,0.87
2019-03-15T05:39:12.892Z,0.77
2019-03-15T05:42:02.740Z,0.80
2019-03-15T05:44:52.690Z,1.00
2019-03-15T05:47:42.525Z,0.80
2019-03-15T05:50:32.405Z,0.70
2019-03-15T05:53:22.313Z,0.97
2019-03-15T05:56:12.244Z,0.93
2019-03-15T05:59:02.094Z,0.87
2019-03-15T06:01:51.958Z,0.90
2019-03-15T06:04:22.412Z,0.97
2019-03-15T06:07:12.264Z,1.10
2019-03-15T06:10:02.138Z,0.90
2019-03-15T06:12:51.994Z,1.33
2019-03-15T06:15:41.828Z,2.13
2019-03-15T06:18:31.647Z,1.33
2019-03-15T06:21:21.509Z,1.50
2019-03-15T06:24:11.442Z,1.60
2019-03-15T06:27:01.263Z,1.33
2019-03-15T06:29:51.117Z,1.87
2019-03-15T06:32:40.971Z,1.90
2019-03-15T06:35:30.844Z,2.60
2019-03-15T06:38:20.681Z,2.40
2019-03-15T06:41:10.570Z,1.97
2019-03-15T06:44:01.010Z,2.00
2019-03-15T06:46:50.815Z,2.30
2019-03-15T06:49:40.694Z,2.33
2019-03-15T06:52:30.540Z,1.90
2019-03-15T06:55:20.378Z,2.43
2019-03-15T06:58:29.296Z,2.30
2019-03-15T07:01:19.173Z,2.10
2019-03-15T07:03:49.706Z,2.17
2019-03-15T07:06:39.531Z,2.33
2019-03-15T07:09:30.918Z,1.90
2019-03-15T07:12:20.940Z,2.30
2019-03-15T07:15:10.996Z,2.03
2019-03-15T07:18:00.812Z,2.53
2019-03-15T07:20:50.679Z,2.20
2019-03-15T07:23:40.593Z,2.00
2019-03-15T07:26:30.546Z,2.13
2019-03-15T07:29:20.425Z,2.67
2019-03-15T07:32:10.720Z,2.40
2019-03-15T07:35:00.634Z,2.30
2019-03-15T07:37:50.582Z,2.50
2019-03-15T07:40:40.542Z,2.00
2019-03-15T07:43:30.395Z,2.40
2019-03-15T07:46:01.260Z,2.33
2019-03-15T07:48:31.802Z,1.40
2019-03-15T07:51:21.636Z,1.57
2019-03-15T07:54:11.614Z,2.13
2019-03-15T07:57:02.379Z,2.00
2019-03-15T07:59:52.237Z,2.23
2019-03-15T08:02:22.849Z,2.13
2019-03-15T08:04:54.959Z,2.77
2019-03-15T08:07:45.885Z,1.53
2019-03-15T08:10:28.512Z,1.63
2019-03-15T08:13:18.364Z,1.93
2019-03-15T08:16:08.255Z,1.83
2019-03-15T08:18:38.987Z,1.80
2019-03-15T08:21:28.866Z,1.80
2019-03-15T08:24:18.751Z,1.80
2019-03-15T08:26:49.402Z,1.80
2019-03-15T08:29:39.254Z,1.43
2019-03-15T08:32:29.190Z,2.23
2019-03-15T08:35:19.090Z,1.43
2019-03-15T08:37:49.740Z,2.10
2019-03-15T08:40:39.557Z,2.30
2019-03-15T08:43:29.415Z,1.77
2019-03-15T08:46:19.224Z,1.70
2019-03-15T08:48:49.759Z,1.93
2019-03-15T08:51:20.470Z,1.67
2019-03-15T08:54:10.369Z,2.00
2019-03-15T08:57:00.214Z,2.23
2019-03-15T08:59:56.973Z,2.10
2019-03-15T09:02:41.666Z,1.93
2019-03-15T09:05:31.540Z,2.37
2019-03-15T09:08:21.374Z,1.73
2019-03-15T09:11:11.243Z,1.97
2019-03-15T09:14:01.058Z,1.63
2019-03-15T09:16:50.950Z,2.20
2019-03-15T09:19:40.758Z,1.33
2019-03-15T09:22:30.680Z,2.00
2019-03-15T09:25:01.338Z,2.20
2019-03-15T09:27:51.243Z,1.67
2019-03-15T09:30:41.189Z,1.87
2019-03-15T09:33:31.061Z,1.80
2019-03-15T09:36:20.937Z,1.40
2019-03-15T09:39:10.823Z,1.83
2019-03-15T09:42:00.713Z,2.07
2019-03-15T09:44:50.572Z,2.20
2019-03-15T09:47:40.513Z,2.57
2019-03-15T09:50:40.011Z,2.00
2019-03-15T09:53:13.335Z,2.30
2019-03-15T09:56:03.261Z,2.43
2019-03-15T09:58:53.187Z,2.80
2019-03-15T10:01:43.055Z,2.73
2019-03-15T10:04:35.887Z,2.10
2019-03-15T10:07:16.073Z,2.40
2019-03-15T10:10:13.503Z,1.90
2019-03-15T10:12:43.736Z,3.00
2019-03-15T10:15:33.666Z,2.60
2019-03-15T10:18:23.608Z,2.00
2019-03-15T10:21:13.474Z,2.10
2019-03-15T10:24:03.339Z,2.17
2019-03-15T10:26:53.218Z,2.33
2019-03-15T10:29:43.187Z,1.60
2019-03-15T10:32:33.065Z,2.10
2019-03-15T10:35:23.123Z,2.00
2019-03-15T10:38:16.411Z,1.80
2019-03-15T10:40:50.713Z,1.90
2019-03-15T10:43:40.605Z,2.30
2019-03-15T10:46:30.492Z,2.30
2019-03-15T10:49:20.377Z,2.27
2019-03-15T10:51:50.948Z,2.70
2019-03-15T10:54:40.763Z,2.40
2019-03-15T10:57:30.632Z,2.17
2019-03-15T11:00:20.501Z,2.37
2019-03-15T11:03:13.002Z,2.20
2019-03-15T11:06:02.135Z,2.60
2019-03-15T11:08:52.007Z,2.73
2019-03-15T11:11:41.848Z,2.07
2019-03-15T11:14:31.745Z,2.37
2019-03-15T11:17:03.815Z,3.00
2019-03-15T11:19:53.718Z,2.70
2019-03-15T11:22:43.659Z,2.70
2019-03-15T11:25:33.503Z,2.00
2019-03-15T11:28:23.332Z,2.20
2019-03-15T11:31:13.426Z,2.20
2019-03-15T11:34:03.292Z,2.80
2019-03-15T11:36:58.371Z,2.67
2019-03-15T11:39:44.832Z,2.50
2019-03-15T11:42:34.757Z,3.03
2019-03-15T11:45:24.598Z,2.43
2019-03-15T11:48:14.584Z,2.43
2019-03-15T11:51:04.433Z,2.57
2019-03-15T11:53:34.912Z,2.30
2019-03-15T11:56:27.235Z,2.10
2019-03-15T11:59:02.877Z,2.53
2019-03-15T12:02:03.581Z,2.73
2019-03-15T12:04:30.510Z,2.60
2019-03-15T12:07:20.427Z,1.90
2019-03-15T12:10:10.444Z,1.77
2019-03-15T12:13:00.341Z,2.70
2019-03-15T12:15:50.249Z,2.40
2019-03-15T12:18:40.135Z,2.93
2019-03-15T12:21:30.000Z,2.10
2019-03-15T12:24:19.878Z,2.43
2019-03-15T12:26:50.379Z,1.90
2019-03-15T12:29:40.259Z,1.97
2019-03-15T12:32:30.175Z,2.60
2019-03-15T12:35:20.012Z,1.67
2019-03-15T12:37:50.862Z,1.87
2019-03-15T12:40:40.724Z,2.00
2019-03-15T12:43:30.615Z,1.90
2019-03-15T12:46:20.717Z,1.67
2019-03-15T12:49:10.613Z,1.70
2019-03-15T12:52:00.494Z,1.47
2019-03-15T12:54:50.367Z,1.67
2019-03-15T12:57:40.278Z,1.80
2019-03-15T13:00:30.138Z,1.70
2019-03-15T13:03:22.289Z,1.43
2019-03-15T13:06:12.161Z,1.70
2019-03-15T13:09:02.066Z,1.17
2019-03-15T13:11:51.980Z,1.40
2019-03-15T13:14:41.886Z,1.00
2019-03-15T13:17:31.808Z,0.90
2019-03-15T13:20:21.496Z,0.90
2019-03-15T13:23:11.355Z,0.70
2019-03-15T13:26:01.232Z,0.87
2019-03-15T13:28:51.140Z,0.93
2019-03-15T13:31:21.602Z,1.30
2019-03-15T13:34:11.557Z,0.77
2019-03-15T13:37:01.453Z,1.47
2019-03-15T13:39:51.374Z,1.40
2019-03-15T13:42:41.333Z,1.37
2019-03-15T13:45:31.217Z,1.13
2019-03-15T13:48:21.114Z,1.73
2019-03-15T13:51:11.007Z,1.00
2019-03-15T13:54:00.914Z,1.20
2019-03-15T13:56:50.911Z,1.20
2019-03-15T13:59:21.482Z,0.90
2019-03-15T14:02:11.324Z,1.00
2019-03-15T14:05:01.180Z,1.10
2019-03-15T14:07:51.044Z,1.10
2019-03-15T14:10:49.177Z,1.30
2019-03-15T14:13:24.035Z,1.23
2019-03-15T14:16:13.931Z,1.47
2019-03-15T14:18:44.526Z,1.17
2019-03-15T14:21:34.378Z,0.90
2019-03-15T14:24:24.271Z,1.17
2019-03-15T14:27:14.146Z,1.30
2019-03-15T14:30:04.001Z,1.70
2019-03-15T14:32:53.850Z,1.10
2019-03-15T14:35:43.756Z,1.10
2019-03-15T14:38:33.630Z,1.20
2019-03-15T14:41:23.848Z,1.07
2019-03-15T14:44:18.195Z,0.97
2019-03-15T14:46:58.120Z,1.10
2019-03-15T14:49:28.775Z,1.40
2019-03-15T14:52:18.619Z,0.77
2019-03-15T14:54:49.164Z,1.10
2019-03-15T14:57:51.148Z,1.33
2019-03-15T15:00:22.219Z,0.90
2019-03-15T15:03:12.099Z,0.70
2019-03-15T15:06:02.060Z,0.67
2019-03-15T15:08:32.814Z,0.90
2019-03-15T15:11:25.618Z,0.90
2019-03-15T15:14:06.271Z,0.83
2019-03-15T15:16:56.122Z,0.53
2019-03-15T15:19:46.009Z,0.70
2019-03-15T15:22:16.841Z,0.80
2019-03-15T15:25:06.851Z,0.60
2019-03-15T15:31:01.861Z,0.70
2019-03-15T15:33:51.726Z,0.60
2019-03-15T15:36:41.683Z,0.63
2019-03-15T15:39:31.542Z,0.93
2019-03-15T15:42:02.123Z,0.90
2019-03-15T15:44:51.965Z,0.60
2019-03-15T15:47:41.910Z,0.87
2019-03-15T15:50:31.829Z,0.83
2019-03-15T15:53:04.018Z,0.60
2019-03-15T15:55:53.880Z,0.60
2019-03-15T15:58:43.768Z,0.70
2019-03-15T16:01:33.672Z,0.50
2019-03-15T16:04:23.535Z,0.90
2019-03-15T16:07:13.407Z,0.67
2019-03-15T16:10:03.303Z,0.67
2019-03-15T16:12:53.170Z,0.70
2019-03-15T16:15:43.267Z,0.70
2019-03-15T16:18:33.139Z,0.60
2019-03-15T16:21:22.995Z,0.70
2019-03-15T16:24:12.888Z,0.80
2019-03-15T16:27:02.839Z,0.87
2019-03-15T16:29:33.323Z,0.50
2019-03-15T16:32:23.229Z,0.60
2019-03-15T16:35:13.211Z,0.93
2019-03-15T16:38:03.147Z,0.90
2019-03-15T16:40:52.983Z,0.93
2019-03-15T16:43:42.842Z,0.60
2019-03-15T16:46:32.757Z,0.70
2019-03-15T16:49:03.209Z,1.10
2019-03-15T16:51:39.544Z,0.70
2019-03-15T16:54:29.449Z,0.80
2019-03-15T16:57:19.283Z,1.10
2019-03-15T17:00:10.109Z,0.80
2019-03-15T17:03:00.067Z,0.77
2019-03-15T17:05:49.911Z,0.77
2019-03-15T17:08:39.755Z,1.17
2019-03-15T17:11:29.650Z,1.50
2019-03-15T17:14:25.357Z,1.30
2019-03-15T17:17:02.658Z,1.13
2019-03-15T17:19:54.265Z,2.13
2019-03-15T17:22:36.164Z,1.20
2019-03-15T17:25:26.050Z,1.00
2019-03-15T17:28:15.913Z,0.97
2019-03-15T17:31:10.117Z,1.00
2019-03-15T17:33:49.555Z,0.90
2019-03-15T17:36:20.480Z,1.17
2019-03-15T17:38:51.105Z,1.10
2019-03-15T17:41:41.035Z,1.20
2019-03-15T17:44:11.552Z,0.90
2019-03-15T17:47:01.397Z,1.50
2019-03-15T17:49:51.795Z,1.60
2019-03-15T17:52:41.656Z,1.80
2019-03-15T17:55:31.551Z,1.27
2019-03-15T17:58:21.429Z,1.80
2019-03-15T18:01:11.272Z,1.80
2019-03-15T18:04:01.197Z,1.77
2019-03-15T18:06:51.164Z,1.43
2019-03-15T18:09:41.043Z,1.47
2019-03-15T18:12:30.931Z,1.20
2019-03-15T18:15:21.738Z,1.30
2019-03-15T18:18:11.677Z,1.40
2019-03-15T18:21:01.571Z,1.60
2019-03-15T18:23:51.722Z,1.53
2019-03-15T18:26:41.650Z,1.20
2019-03-15T18:29:31.621Z,1.20
2019-03-15T18:32:21.468Z,1.20
2019-03-15T18:38:27.372Z,1.03
2019-03-15T18:41:17.629Z,1.43
2019-03-15T18:44:07.579Z,1.50
2019-03-15T18:46:57.490Z,1.17
2019-03-15T18:49:47.491Z,1.90
2019-03-15T18:52:37.407Z,1.13
2019-03-15T18:55:27.353Z,1.80
2019-03-15T18:58:17.407Z,1.60
2019-03-15T19:01:07.403Z,1.90
2019-03-15T19:03:57.307Z,1.77
2019-03-15T19:06:47.333Z,1.80
2019-03-15T19:09:17.959Z,1.70
2019-03-15T19:12:07.855Z,1.40
2019-03-15T19:14:57.792Z,1.33
2019-03-15T19:17:47.625Z,1.40
2019-03-15T19:20:37.679Z,1.10
2019-03-15T19:23:27.677Z,1.17
2019-03-15T19:26:17.608Z,1.20
2019-03-15T19:29:07.500Z,1.23
2019-03-15T19:31:57.400Z,1.50
2019-03-15T19:34:47.241Z,1.63
2019-03-15T19:37:37.202Z,2.00
2019-03-15T19:40:27.098Z,2.07
2019-03-15T19:43:17.058Z,1.60
2019-03-15T19:46:06.946Z,1.27
2019-03-15T19:48:56.864Z,1.87
2019-03-15T19:51:46.683Z,1.30
2019-03-15T19:54:36.673Z,1.10
2019-03-15T19:57:26.563Z,1.00
2019-03-15T20:00:07.127Z,1.13
2019-03-15T20:02:48.772Z,1.07
2019-03-15T20:05:38.710Z,1.13
2019-03-15T20:08:28.585Z,1.33
2019-03-15T20:11:18.478Z,0.80
2019-03-15T20:14:08.388Z,1.17
2019-03-15T20:16:39.255Z,0.97
2019-03-15T20:19:29.212Z,1.20
2019-03-15T20:22:21.193Z,1.80
2019-03-15T20:25:12.079Z,1.67
2019-03-15T20:28:04.165Z,1.03
2019-03-15T20:30:53.541Z,1.33
2019-03-15T20:33:43.500Z,1.10
2019-03-15T20:36:33.353Z,1.00
2019-03-15T20:39:23.293Z,1.00
2019-03-15T20:42:13.175Z,1.10
2019-03-15T20:45:03.154Z,0.90
2019-03-15T20:47:53.104Z,1.13
2019-03-15T20:50:47.084Z,1.10
2019-03-15T20:53:20.741Z,0.73
2019-03-15T20:55:51.356Z,1.07
2019-03-15T20:58:41.317Z,1.20
2019-03-15T21:01:31.265Z,0.77
2019-03-15T21:04:23.673Z,1.30
2019-03-15T21:07:25.748Z,1.07
2019-03-15T21:09:56.400Z,1.00
2019-03-15T21:12:46.318Z,0.70
2019-03-15T21:15:36.203Z,0.90
2019-03-15T21:18:26.147Z,0.80
2019-03-15T21:21:16.015Z,0.73
2019-03-15T21:24:06.022Z,0.87
2019-03-15T21:26:56.001Z,0.50
2019-03-15T21:29:46.007Z,0.93
2019-03-15T21:32:35.947Z,0.90
2019-03-15T21:35:07.108Z,0.70
2019-03-15T21:37:56.997Z,0.60
2019-03-15T21:40:46.919Z,0.80
2019-03-15T21:43:17.473Z,0.80
2019-03-15T21:46:07.407Z,0.90
2019-03-15T21:48:57.255Z,0.70
2019-03-15T21:51:47.304Z,0.63
2019-03-15T21:54:37.161Z,0.67
2019-03-15T21:57:27.038Z,0.90
2019-03-15T22:00:16.980Z,0.50
2019-03-15T22:03:06.845Z,0.80
2019-03-15T22:05:38.929Z,0.57
2019-03-15T22:08:28.812Z,0.90
2019-03-15T22:11:21.378Z,0.70
2019-03-15T22:14:01.966Z,0.77
2019-03-15T22:16:51.929Z,0.70
2019-03-15T22:19:41.942Z,0.50
2019-03-15T22:22:31.873Z,0.70
2019-03-15T22:25:02.760Z,0.90
2019-03-15T22:27:52.632Z,1.00
2019-03-15T22:30:42.504Z,0.83
2019-03-15T22:33:32.350Z,0.50
2019-03-15T22:36:22.287Z,0.60
2019-03-15T22:39:12.145Z,0.70
2019-03-15T22:42:02.141Z,0.50
2019-03-15T22:44:52.109Z,0.53
2019-03-15T22:47:42.031Z,0.60
2019-03-15T22:50:31.870Z,0.70
2019-03-15T22:53:21.821Z,0.60
2019-03-15T22:56:11.782Z,0.50
2019-03-15T22:59:01.740Z,0.97
2019-03-15T23:01:51.621Z,0.60
2019-03-15T23:04:41.550Z,0.80
2019-03-15T23:07:12.045Z,0.60
2019-03-15T23:10:01.910Z,0.77
2019-03-15T23:15:34.616Z,0.70
2019-03-15T23:18:24.525Z,0.60
2019-03-15T23:21:14.431Z,0.50
2019-03-15T23:24:04.299Z,0.60
2019-03-15T23:26:54.186Z,0.70
2019-03-15T23:29:44.095Z,0.60
2019-03-15T23:32:33.958Z,0.67
2019-03-15T23:35:23.848Z,0.60
2019-03-15T23:38:13.741Z,0.60
2019-03-15T23:41:03.644Z,0.50
2019-03-15T23:43:53.658Z,0.50
2019-03-15T23:46:43.594Z,0.50
2019-03-15T23:49:14.145Z,0.70
2019-03-15T23:52:04.026Z,0.50
2019-03-15T23:54:53.916Z,0.60
2019-03-15T23:57:43.846Z,0.50
